Terminal Aerodrome Forecast
Issued by NWS

Home | Current Version | Previous Version | Text Only | Print | Product List | Glossary On
Versions: 1 2 3 4 5 6 7 8 9 10 11 12 13 14 15 16 17 18 19 20 21 22 23 24
000
FTUS44 KBMX 042320
TAFTOI
TAF
KTOI 042320Z 0500/0524 VRB07G18KT 4SM TSRA OVC050CB
     FM050030 17005KT P6SM -SHRA BKN100
     FM050300 20005KT P6SM BKN150
     FM050900 20003KT P6SM VCSH OVC030
     FM051800 22006KT P6SM OVC100=

USA.gov is the U.S. government's official web portal to all federal, state and local government web resources and services.